sensor_id;sensor_type;location;lat;lon;timestamp;P1;durP1;ratioP1;P2;durP2;ratioP2
56427;SDS011;42331;53.578;9.760;2023-12-20T00:02:17;18.20;;;1.33;;
56427;SDS011;42331;53.578;9.760;2023-12-20T00:04:48;15.03;;;1.30;;
56427;SDS011;42331;53.578;9.760;2023-12-20T00:07:19;16.73;;;1.48;;
56427;SDS011;42331;53.578;9.760;2023-12-20T00:09:51;10.67;;;1.43;;
56427;SDS011;42331;53.578;9.760;2023-12-20T00:12:22;11.47;;;1.37;;
56427;SDS011;42331;53.578;9.760;2023-12-20T00:14:56;6.10;;;0.93;;
56427;SDS011;42331;53.578;9.760;2023-12-20T00:17:27;14.38;;;1.80;;
56427;SDS011;42331;53.578;9.760;2023-12-20T00:19:58;16.70;;;2.27;;
56427;SDS011;42331;53.578;9.760;2023-12-20T00:22:29;16.58;;;1.50;;
56427;SDS011;42331;53.578;9.760;2023-12-20T00:25:00;13.67;;;1.67;;
56427;SDS011;42331;53.578;9.760;2023-12-20T00:27:31;17.00;;;1.50;;
56427;SDS011;42331;53.578;9.760;2023-12-20T00:30:02;14.87;;;1.43;;
56427;SDS011;42331;53.578;9.760;2023-12-20T00:32:34;21.83;;;1.90;;
56427;SDS011;42331;53.578;9.760;2023-12-20T00:35:06;9.98;;;1.48;;
56427;SDS011;42331;53.578;9.760;2023-12-20T00:37:37;15.10;;;1.77;;
56427;SDS011;42331;53.578;9.760;2023-12-20T00:40:08;11.50;;;1.43;;
56427;SDS011;42331;53.578;9.760;2023-12-20T00:42:39;11.18;;;1.13;;
56427;SDS011;42331;53.578;9.760;2023-12-20T00:45:10;13.83;;;1.07;;
56427;SDS011;42331;53.578;9.760;2023-12-20T00:47:41;13.38;;;1.92;;
56427;SDS011;42331;53.578;9.760;2023-12-20T00:50:12;8.40;;;0.77;;
56427;SDS011;42331;53.578;9.760;2023-12-20T00:52:44;13.13;;;1.13;;
56427;SDS011;42331;53.578;9.760;2023-12-20T00:55:15;10.83;;;1.40;;
56427;SDS011;42331;53.578;9.760;2023-12-20T00:57:46;12.57;;;1.97;;
56427;SDS011;42331;53.578;9.760;2023-12-20T01:00:17;13.80;;;1.23;;
56427;SDS011;42331;53.578;9.760;2023-12-20T01:02:48;7.68;;;0.80;;
56427;SDS011;42331;53.578;9.760;2023-12-20T01:05:21;10.98;;;1.23;;
56427;SDS011;42331;53.578;9.760;2023-12-20T01:07:55;9.43;;;1.60;;
56427;SDS011;42331;53.578;9.760;2023-12-20T01:10:26;17.23;;;1.63;;
56427;SDS011;42331;53.578;9.760;2023-12-20T01:12:58;13.73;;;1.42;;
56427;SDS011;42331;53.578;9.760;2023-12-20T01:15:29;8.18;;;1.05;;
56427;SDS011;42331;53.578;9.760;2023-12-20T01:18:01;19.20;;;1.77;;
56427;SDS011;42331;53.578;9.760;2023-12-20T01:20:32;11.60;;;1.48;;
56427;SDS011;42331;53.578;9.760;2023-12-20T01:23:03;9.30;;;1.15;;
56427;SDS011;42331;53.578;9.760;2023-12-20T01:25:34;11.43;;;1.20;;
56427;SDS011;42331;53.578;9.760;2023-12-20T01:28:05;13.90;;;1.90;;
56427;SDS011;42331;53.578;9.760;2023-12-20T01:30:36;13.80;;;0.90;;
56427;SDS011;42331;53.578;9.760;2023-12-20T01:33:07;16.17;;;2.00;;
56427;SDS011;42331;53.578;9.760;2023-12-20T01:35:39;12.47;;;2.07;;
56427;SDS011;42331;53.578;9.760;2023-12-20T01:38:10;16.80;;;1.40;;
56427;SDS011;42331;53.578;9.760;2023-12-20T01:40:41;13.73;;;1.50;;
56427;SDS011;42331;53.578;9.760;2023-12-20T01:43:12;7.03;;;1.30;;
56427;SDS011;42331;53.578;9.760;2023-12-20T01:45:43;23.25;;;1.88;;
56427;SDS011;42331;53.578;9.760;2023-12-20T01:48:15;10.27;;;1.17;;
56427;SDS011;42331;53.578;9.760;2023-12-20T01:50:47;15.95;;;1.48;;
56427;SDS011;42331;53.578;9.760;2023-12-20T01:53:19;10.30;;;0.98;;
56427;SDS011;42331;53.578;9.760;2023-12-20T01:55:50;13.25;;;1.40;;
56427;SDS011;42331;53.578;9.760;2023-12-20T01:58:22;12.27;;;1.48;;
56427;SDS011;42331;53.578;9.760;2023-12-20T02:00:54;13.13;;;1.27;;
56427;SDS011;42331;53.578;9.760;2023-12-20T02:03:25;16.38;;;1.23;;
56427;SDS011;42331;53.578;9.760;2023-12-20T02:05:56;14.30;;;1.17;;
56427;SDS011;42331;53.578;9.760;2023-12-20T02:08:27;8.93;;;1.20;;
56427;SDS011;42331;53.578;9.760;2023-12-20T02:10:59;9.98;;;1.15;;
56427;SDS011;42331;53.578;9.760;2023-12-20T02:13:30;12.68;;;1.30;;
56427;SDS011;42331;53.578;9.760;2023-12-20T02:16:02;14.43;;;1.65;;
56427;SDS011;42331;53.578;9.760;2023-12-20T02:18:33;17.60;;;1.40;;
56427;SDS011;42331;53.578;9.760;2023-12-20T02:21:05;23.33;;;1.97;;
56427;SDS011;42331;53.578;9.760;2023-12-20T02:23:36;13.27;;;1.20;;
56427;SDS011;42331;53.578;9.760;2023-12-20T02:26:07;15.70;;;1.20;;
56427;SDS011;42331;53.578;9.760;2023-12-20T02:28:38;13.50;;;1.23;;
56427;SDS011;42331;53.578;9.760;2023-12-20T02:31:09;3.50;;;0.77;;
56427;SDS011;42331;53.578;9.760;2023-12-20T02:33:40;5.73;;;1.00;;
56427;SDS011;42331;53.578;9.760;2023-12-20T02:36:12;15.18;;;1.40;;
56427;SDS011;42331;53.578;9.760;2023-12-20T02:38:43;13.17;;;1.50;;
56427;SDS011;42331;53.578;9.760;2023-12-20T02:41:14;14.10;;;1.53;;
56427;SDS011;42331;53.578;9.760;2023-12-20T02:43:48;12.88;;;1.42;;
56427;SDS011;42331;53.578;9.760;2023-12-20T02:46:19;16.07;;;1.20;;
56427;SDS011;42331;53.578;9.760;2023-12-20T02:48:50;5.97;;;0.90;;
56427;SDS011;42331;53.578;9.760;2023-12-20T02:51:21;9.82;;;1.20;;
56427;SDS011;42331;53.578;9.760;2023-12-20T02:53:52;6.27;;;1.00;;
56427;SDS011;42331;53.578;9.760;2023-12-20T02:56:23;13.85;;;1.67;;
56427;SDS011;42331;53.578;9.760;2023-12-20T02:58:54;10.03;;;1.10;;
56427;SDS011;42331;53.578;9.760;2023-12-20T03:01:26;9.50;;;1.03;;
56427;SDS011;42331;53.578;9.760;2023-12-20T03:03:57;11.82;;;1.20;;
56427;SDS011;42331;53.578;9.760;2023-12-20T03:06:28;18.63;;;2.10;;
56427;SDS011;42331;53.578;9.760;2023-12-20T03:08:59;19.85;;;1.77;;
56427;SDS011;42331;53.578;9.760;2023-12-20T03:11:30;8.20;;;1.30;;
56427;SDS011;42331;53.578;9.760;2023-12-20T03:14:01;12.60;;;1.47;;
56427;SDS011;42331;53.578;9.760;2023-12-20T03:16:32;16.93;;;1.80;;
56427;SDS011;42331;53.578;9.760;2023-12-20T03:19:04;4.93;;;0.83;;
56427;SDS011;42331;53.578;9.760;2023-12-20T03:21:35;6.83;;;1.00;;
56427;SDS011;42331;53.578;9.760;2023-12-20T03:24:06;9.43;;;1.23;;
56427;SDS011;42331;53.578;9.760;2023-12-20T03:26:37;15.57;;;1.40;;
56427;SDS011;42331;53.578;9.760;2023-12-20T03:29:08;8.83;;;1.40;;
56427;SDS011;42331;53.578;9.760;2023-12-20T03:31:39;10.63;;;1.10;;
56427;SDS011;42331;53.578;9.760;2023-12-20T03:34:10;9.77;;;2.43;;
56427;SDS011;42331;53.578;9.760;2023-12-20T03:36:41;12.53;;;1.50;;
56427;SDS011;42331;53.578;9.760;2023-12-20T03:39:12;9.47;;;1.07;;
56427;SDS011;42331;53.578;9.760;2023-12-20T03:41:43;12.13;;;1.60;;
56427;SDS011;42331;53.578;9.760;2023-12-20T03:44:14;6.97;;;1.13;;
56427;SDS011;42331;53.578;9.760;2023-12-20T03:46:45;15.57;;;1.73;;
56427;SDS011;42331;53.578;9.760;2023-12-20T03:49:17;13.57;;;1.58;;
56427;SDS011;42331;53.578;9.760;2023-12-20T03:51:48;10.57;;;1.23;;
56427;SDS011;42331;53.578;9.760;2023-12-20T03:54:19;12.03;;;1.37;;
56427;SDS011;42331;53.578;9.760;2023-12-20T03:56:50;9.68;;;1.35;;
56427;SDS011;42331;53.578;9.760;2023-12-20T03:59:22;8.77;;;0.80;;
56427;SDS011;42331;53.578;9.760;2023-12-20T04:01:53;10.30;;;1.30;;
56427;SDS011;42331;53.578;9.760;2023-12-20T04:04:24;9.63;;;1.40;;
56427;SDS011;42331;53.578;9.760;2023-12-20T04:06:55;10.55;;;1.20;;
56427;SDS011;42331;53.578;9.760;2023-12-20T04:09:26;13.00;;;1.60;;
56427;SDS011;42331;53.578;9.760;2023-12-20T04:11:57;7.60;;;1.30;;
56427;SDS011;42331;53.578;9.760;2023-12-20T04:14:28;12.57;;;1.30;;
56427;SDS011;42331;53.578;9.760;2023-12-20T04:16:59;13.02;;;1.05;;
56427;SDS011;42331;53.578;9.760;2023-12-20T04:19:31;11.02;;;1.70;;
56427;SDS011;42331;53.578;9.760;2023-12-20T04:22:02;14.82;;;1.83;;
56427;SDS011;42331;53.578;9.760;2023-12-20T04:24:33;7.57;;;1.53;;
56427;SDS011;42331;53.578;9.760;2023-12-20T04:27:04;11.18;;;1.90;;
56427;SDS011;42331;53.578;9.760;2023-12-20T04:29:35;8.17;;;1.10;;
56427;SDS011;42331;53.578;9.760;2023-12-20T04:32:06;3.10;;;0.93;;
56427;SDS011;42331;53.578;9.760;2023-12-20T04:34:38;15.97;;;1.80;;
56427;SDS011;42331;53.578;9.760;2023-12-20T04:37:09;11.93;;;1.48;;
56427;SDS011;42331;53.578;9.760;2023-12-20T04:39:40;12.55;;;1.77;;
56427;SDS011;42331;53.578;9.760;2023-12-20T04:42:11;14.25;;;1.77;;
56427;SDS011;42331;53.578;9.760;2023-12-20T04:44:43;8.07;;;1.20;;
56427;SDS011;42331;53.578;9.760;2023-12-20T04:47:14;12.00;;;1.58;;
56427;SDS011;42331;53.578;9.760;2023-12-20T04:49:45;15.10;;;1.90;;
56427;SDS011;42331;53.578;9.760;2023-12-20T04:52:16;14.70;;;2.53;;
56427;SDS011;42331;53.578;9.760;2023-12-20T04:54:47;12.23;;;1.47;;
56427;SDS011;42331;53.578;9.760;2023-12-20T04:57:18;8.70;;;0.93;;
56427;SDS011;42331;53.578;9.760;2023-12-20T04:59:49;11.20;;;2.10;;
56427;SDS011;42331;53.578;9.760;2023-12-20T05:02:20;14.93;;;1.95;;
56427;SDS011;42331;53.578;9.760;2023-12-20T05:04:51;11.98;;;1.80;;
56427;SDS011;42331;53.578;9.760;2023-12-20T05:07:22;14.40;;;2.47;;
56427;SDS011;42331;53.578;9.760;2023-12-20T05:12:24;10.00;;;1.43;;
56427;SDS011;42331;53.578;9.760;2023-12-20T05:14:55;7.57;;;1.58;;
56427;SDS011;42331;53.578;9.760;2023-12-20T05:17:26;7.82;;;1.50;;
56427;SDS011;42331;53.578;9.760;2023-12-20T05:19:57;12.00;;;1.40;;
56427;SDS011;42331;53.578;9.760;2023-12-20T05:22:29;13.27;;;1.88;;
56427;SDS011;42331;53.578;9.760;2023-12-20T05:25:00;11.37;;;1.70;;
56427;SDS011;42331;53.578;9.760;2023-12-20T05:27:31;14.17;;;1.70;;
56427;SDS011;42331;53.578;9.760;2023-12-20T05:30:03;16.77;;;2.30;;
56427;SDS011;42331;53.578;9.760;2023-12-20T05:32:34;14.90;;;2.10;;
56427;SDS011;42331;53.578;9.760;2023-12-20T05:35:08;14.75;;;2.30;;
56427;SDS011;42331;53.578;9.760;2023-12-20T05:37:39;19.00;;;2.00;;
56427;SDS011;42331;53.578;9.760;2023-12-20T05:40:10;10.67;;;2.10;;
56427;SDS011;42331;53.578;9.760;2023-12-20T05:42:41;12.15;;;1.98;;
56427;SDS011;42331;53.578;9.760;2023-12-20T05:45:14;13.68;;;2.42;;
56427;SDS011;42331;53.578;9.760;2023-12-20T05:47:45;15.70;;;1.65;;
56427;SDS011;42331;53.578;9.760;2023-12-20T05:50:16;12.10;;;1.37;;
56427;SDS011;42331;53.578;9.760;2023-12-20T05:52:47;11.97;;;1.27;;
56427;SDS011;42331;53.578;9.760;2023-12-20T05:55:18;15.30;;;1.95;;
56427;SDS011;42331;53.578;9.760;2023-12-20T05:57:49;18.17;;;1.90;;
56427;SDS011;42331;53.578;9.760;2023-12-20T06:00:20;9.03;;;1.37;;
56427;SDS011;42331;53.578;9.760;2023-12-20T06:02:51;14.40;;;2.37;;
56427;SDS011;42331;53.578;9.760;2023-12-20T06:05:22;17.10;;;1.73;;
56427;SDS011;42331;53.578;9.760;2023-12-20T06:07:54;10.63;;;1.73;;
56427;SDS011;42331;53.578;9.760;2023-12-20T06:10:27;22.83;;;2.45;;
56427;SDS011;42331;53.578;9.760;2023-12-20T06:12:58;11.20;;;1.50;;
56427;SDS011;42331;53.578;9.760;2023-12-20T06:15:30;17.40;;;1.88;;
56427;SDS011;42331;53.578;9.760;2023-12-20T06:18:02;13.15;;;1.77;;
56427;SDS011;42331;53.578;9.760;2023-12-20T06:20:33;20.00;;;2.67;;
56427;SDS011;42331;53.578;9.760;2023-12-20T06:23:05;13.60;;;1.83;;
56427;SDS011;42331;53.578;9.760;2023-12-20T06:25:36;19.57;;;2.43;;
56427;SDS011;42331;53.578;9.760;2023-12-20T06:28:07;17.33;;;1.90;;
56427;SDS011;42331;53.578;9.760;2023-12-20T06:30:40;15.57;;;2.08;;
56427;SDS011;42331;53.578;9.760;2023-12-20T06:33:11;12.27;;;2.17;;
56427;SDS011;42331;53.578;9.760;2023-12-20T06:35:43;9.93;;;1.25;;
56427;SDS011;42331;53.578;9.760;2023-12-20T06:38:14;13.38;;;1.92;;
56427;SDS011;42331;53.578;9.760;2023-12-20T06:40:45;9.33;;;1.70;;
56427;SDS011;42331;53.578;9.760;2023-12-20T06:43:19;18.25;;;1.77;;
56427;SDS011;42331;53.578;9.760;2023-12-20T06:45:50;12.97;;;1.83;;
56427;SDS011;42331;53.578;9.760;2023-12-20T06:48:21;10.10;;;1.47;;
56427;SDS011;42331;53.578;9.760;2023-12-20T06:50:54;10.07;;;1.25;;
56427;SDS011;42331;53.578;9.760;2023-12-20T06:53:25;11.47;;;1.80;;
56427;SDS011;42331;53.578;9.760;2023-12-20T06:55:56;10.83;;;1.77;;
56427;SDS011;42331;53.578;9.760;2023-12-20T06:58:27;11.83;;;2.07;;
56427;SDS011;42331;53.578;9.760;2023-12-20T07:00:59;13.75;;;1.40;;
56427;SDS011;42331;53.578;9.760;2023-12-20T07:03:30;13.50;;;2.20;;
56427;SDS011;42331;53.578;9.760;2023-12-20T07:06:01;13.20;;;1.63;;
56427;SDS011;42331;53.578;9.760;2023-12-20T07:08:32;13.90;;;1.90;;
56427;SDS011;42331;53.578;9.760;2023-12-20T07:11:04;17.05;;;3.03;;
56427;SDS011;42331;53.578;9.760;2023-12-20T07:13:35;14.05;;;1.95;;
56427;SDS011;42331;53.578;9.760;2023-12-20T07:16:09;14.00;;;2.00;;
56427;SDS011;42331;53.578;9.760;2023-12-20T07:18:40;21.33;;;2.90;;
56427;SDS011;42331;53.578;9.760;2023-12-20T07:21:14;21.65;;;2.35;;
56427;SDS011;42331;53.578;9.760;2023-12-20T07:23:45;20.45;;;2.35;;
56427;SDS011;42331;53.578;9.760;2023-12-20T07:26:17;17.70;;;2.03;;
56427;SDS011;42331;53.578;9.760;2023-12-20T07:28:48;17.88;;;2.58;;
56427;SDS011;42331;53.578;9.760;2023-12-20T07:31:22;13.57;;;1.50;;
56427;SDS011;42331;53.578;9.760;2023-12-20T07:33:56;11.38;;;1.67;;
56427;SDS011;42331;53.578;9.760;2023-12-20T07:36:28;15.02;;;2.03;;
56427;SDS011;42331;53.578;9.760;2023-12-20T07:38:59;20.33;;;2.80;;
56427;SDS011;42331;53.578;9.760;2023-12-20T07:41:30;13.93;;;2.40;;
56427;SDS011;42331;53.578;9.760;2023-12-20T07:44:01;16.73;;;2.50;;
56427;SDS011;42331;53.578;9.760;2023-12-20T07:46:33;16.73;;;2.03;;
56427;SDS011;42331;53.578;9.760;2023-12-20T07:49:04;16.85;;;2.42;;
56427;SDS011;42331;53.578;9.760;2023-12-20T07:51:42;9.68;;;1.88;;
56427;SDS011;42331;53.578;9.760;2023-12-20T07:54:16;15.95;;;2.15;;
56427;SDS011;42331;53.578;9.760;2023-12-20T07:56:47;19.40;;;2.73;;
56427;SDS011;42331;53.578;9.760;2023-12-20T08:01:50;15.13;;;1.65;;
56427;SDS011;42331;53.578;9.760;2023-12-20T08:04:21;16.57;;;2.37;;
56427;SDS011;42331;53.578;9.760;2023-12-20T08:06:52;15.67;;;2.80;;
56427;SDS011;42331;53.578;9.760;2023-12-20T08:09:23;20.40;;;2.13;;
56427;SDS011;42331;53.578;9.760;2023-12-20T08:11:54;11.00;;;1.93;;
56427;SDS011;42331;53.578;9.760;2023-12-20T08:14:25;16.90;;;2.10;;
56427;SDS011;42331;53.578;9.760;2023-12-20T08:17:08;15.85;;;2.25;;
56427;SDS011;42331;53.578;9.760;2023-12-20T08:19:40;10.73;;;1.50;;
56427;SDS011;42331;53.578;9.760;2023-12-20T08:22:11;16.58;;;2.30;;
56427;SDS011;42331;53.578;9.760;2023-12-20T08:24:42;13.73;;;1.67;;
56427;SDS011;42331;53.578;9.760;2023-12-20T08:27:14;13.97;;;1.60;;
56427;SDS011;42331;53.578;9.760;2023-12-20T08:29:45;16.00;;;2.10;;
56427;SDS011;42331;53.578;9.760;2023-12-20T08:32:16;17.70;;;2.22;;
56427;SDS011;42331;53.578;9.760;2023-12-20T08:34:47;17.20;;;2.00;;
56427;SDS011;42331;53.578;9.760;2023-12-20T08:37:18;16.50;;;2.30;;
56427;SDS011;42331;53.578;9.760;2023-12-20T08:39:52;8.70;;;1.85;;
56427;SDS011;42331;53.578;9.760;2023-12-20T08:42:24;15.27;;;2.30;;
56427;SDS011;42331;53.578;9.760;2023-12-20T08:45:00;14.32;;;1.73;;
56427;SDS011;42331;53.578;9.760;2023-12-20T08:47:34;15.45;;;2.08;;
56427;SDS011;42331;53.578;9.760;2023-12-20T08:50:05;18.00;;;1.50;;
56427;SDS011;42331;53.578;9.760;2023-12-20T08:52:37;11.05;;;1.95;;
56427;SDS011;42331;53.578;9.760;2023-12-20T08:55:08;14.50;;;2.55;;
56427;SDS011;42331;53.578;9.760;2023-12-20T08:57:43;11.93;;;1.58;;
56427;SDS011;42331;53.578;9.760;2023-12-20T09:00:14;4.77;;;1.23;;
56427;SDS011;42331;53.578;9.760;2023-12-20T09:02:45;10.63;;;1.10;;
56427;SDS011;42331;53.578;9.760;2023-12-20T09:05:22;13.27;;;1.55;;
56427;SDS011;42331;53.578;9.760;2023-12-20T09:08:33;13.07;;;1.42;;
56427;SDS011;42331;53.578;9.760;2023-12-20T09:11:04;12.75;;;1.60;;
56427;SDS011;42331;53.578;9.760;2023-12-20T09:13:35;6.97;;;1.23;;
56427;SDS011;42331;53.578;9.760;2023-12-20T09:16:07;12.23;;;1.23;;
56427;SDS011;42331;53.578;9.760;2023-12-20T09:18:38;9.90;;;0.93;;
56427;SDS011;42331;53.578;9.760;2023-12-20T09:21:09;8.30;;;1.08;;
56427;SDS011;42331;53.578;9.760;2023-12-20T09:23:40;4.03;;;0.50;;
56427;SDS011;42331;53.578;9.760;2023-12-20T09:26:11;7.07;;;0.83;;
56427;SDS011;42331;53.578;9.760;2023-12-20T09:28:42;3.10;;;0.50;;
56427;SDS011;42331;53.578;9.760;2023-12-20T09:31:13;5.47;;;0.70;;
56427;SDS011;42331;53.578;9.760;2023-12-20T09:33:44;1.83;;;0.50;;
56427;SDS011;42331;53.578;9.760;2023-12-20T09:36:15;2.67;;;0.47;;
56427;SDS011;42331;53.578;9.760;2023-12-20T09:38:55;1.55;;;0.20;;
56427;SDS011;42331;53.578;9.760;2023-12-20T09:41:27;3.97;;;0.50;;
56427;SDS011;42331;53.578;9.760;2023-12-20T09:43:59;2.05;;;0.35;;
56427;SDS011;42331;53.578;9.760;2023-12-20T09:46:37;1.40;;;0.20;;
56427;SDS011;42331;53.578;9.760;2023-12-20T09:49:13;1.60;;;0.40;;
56427;SDS011;42331;53.578;9.760;2023-12-20T09:51:47;2.70;;;0.40;;
56427;SDS011;42331;53.578;9.760;2023-12-20T09:54:18;2.10;;;0.30;;
56427;SDS011;42331;53.578;9.760;2023-12-20T09:56:49;2.28;;;0.32;;
56427;SDS011;42331;53.578;9.760;2023-12-20T09:59:21;1.83;;;0.30;;
56427;SDS011;42331;53.578;9.760;2023-12-20T10:01:52;0.90;;;0.20;;
56427;SDS011;42331;53.578;9.760;2023-12-20T10:04:40;0.95;;;0.20;;
56427;SDS011;42331;53.578;9.760;2023-12-20T10:07:16;1.63;;;0.30;;
56427;SDS011;42331;53.578;9.760;2023-12-20T10:09:54;1.33;;;0.47;;
56427;SDS011;42331;53.578;9.760;2023-12-20T10:12:26;3.20;;;0.40;;
56427;SDS011;42331;53.578;9.760;2023-12-20T10:14:57;7.85;;;0.47;;
56427;SDS011;42331;53.578;9.760;2023-12-20T10:17:29;5.43;;;0.40;;
56427;SDS011;42331;53.578;9.760;2023-12-20T10:20:01;1.65;;;0.17;;
56427;SDS011;42331;53.578;9.760;2023-12-20T10:22:32;5.18;;;0.50;;
56427;SDS011;42331;53.578;9.760;2023-12-20T10:25:03;1.53;;;0.33;;
56427;SDS011;42331;53.578;9.760;2023-12-20T10:27:35;1.95;;;0.32;;
56427;SDS011;42331;53.578;9.760;2023-12-20T10:30:06;3.20;;;0.40;;
56427;SDS011;42331;53.578;9.760;2023-12-20T10:32:37;3.58;;;0.40;;
56427;SDS011;42331;53.578;9.760;2023-12-20T10:35:08;2.27;;;0.50;;
56427;SDS011;42331;53.578;9.760;2023-12-20T10:37:40;2.47;;;0.43;;
56427;SDS011;42331;53.578;9.760;2023-12-20T10:40:11;6.00;;;0.80;;
56427;SDS011;42331;53.578;9.760;2023-12-20T10:42:43;3.92;;;0.43;;
56427;SDS011;42331;53.578;9.760;2023-12-20T10:45:14;7.55;;;0.60;;
56427;SDS011;42331;53.578;9.760;2023-12-20T10:47:47;9.20;;;1.23;;
56427;SDS011;42331;53.578;9.760;2023-12-20T10:50:20;6.30;;;0.43;;
56427;SDS011;42331;53.578;9.760;2023-12-20T10:52:51;3.60;;;1.17;;
56427;SDS011;42331;53.578;9.760;2023-12-20T10:55:25;6.57;;;0.63;;
56427;SDS011;42331;53.578;9.760;2023-12-20T10:58:17;6.25;;;0.93;;
56427;SDS011;42331;53.578;9.760;2023-12-20T11:00:48;6.57;;;0.50;;
56427;SDS011;42331;53.578;9.760;2023-12-20T11:03:22;7.28;;;0.73;;
56427;SDS011;42331;53.578;9.760;2023-12-20T11:05:58;10.48;;;0.70;;
56427;SDS011;42331;53.578;9.760;2023-12-20T11:08:36;5.05;;;0.65;;
56427;SDS011;42331;53.578;9.760;2023-12-20T11:14:00;7.25;;;0.65;;
56427;SDS011;42331;53.578;9.760;2023-12-20T11:19:06;11.00;;;0.57;;
56427;SDS011;42331;53.578;9.760;2023-12-20T11:21:37;6.60;;;0.98;;
56427;SDS011;42331;53.578;9.760;2023-12-20T11:24:09;7.33;;;1.00;;
56427;SDS011;42331;53.578;9.760;2023-12-20T11:26:41;5.80;;;0.82;;
56427;SDS011;42331;53.578;9.760;2023-12-20T11:29:35;7.15;;;1.00;;
56427;SDS011;42331;53.578;9.760;2023-12-20T11:34:58;8.63;;;1.05;;
56427;SDS011;42331;53.578;9.760;2023-12-20T11:37:30;9.55;;;0.90;;
56427;SDS011;42331;53.578;9.760;2023-12-20T11:40:07;8.93;;;1.20;;
56427;SDS011;42331;53.578;9.760;2023-12-20T11:42:48;11.48;;;1.10;;
56427;SDS011;42331;53.578;9.760;2023-12-20T11:45:20;11.98;;;1.25;;
56427;SDS011;42331;53.578;9.760;2023-12-20T11:47:51;12.40;;;1.00;;
56427;SDS011;42331;53.578;9.760;2023-12-20T11:50:25;9.00;;;0.73;;
56427;SDS011;42331;53.578;9.760;2023-12-20T11:52:56;5.47;;;0.97;;
56427;SDS011;42331;53.578;9.760;2023-12-20T11:55:28;13.90;;;1.40;;
56427;SDS011;42331;53.578;9.760;2023-12-20T11:57:59;15.53;;;1.27;;
56427;SDS011;42331;53.578;9.760;2023-12-20T12:00:30;9.63;;;1.13;;
56427;SDS011;42331;53.578;9.760;2023-12-20T12:03:01;6.60;;;1.23;;
56427;SDS011;42331;53.578;9.760;2023-12-20T12:05:33;12.40;;;1.10;;
56427;SDS011;42331;53.578;9.760;2023-12-20T12:08:05;10.35;;;1.63;;
56427;SDS011;42331;53.578;9.760;2023-12-20T12:13:08;11.77;;;1.50;;
56427;SDS011;42331;53.578;9.760;2023-12-20T12:15:39;11.53;;;1.40;;
56427;SDS011;42331;53.578;9.760;2023-12-20T12:18:15;11.93;;;1.52;;
56427;SDS011;42331;53.578;9.760;2023-12-20T12:20:46;15.35;;;1.75;;
56427;SDS011;42331;53.578;9.760;2023-12-20T12:23:22;8.27;;;1.20;;
56427;SDS011;42331;53.578;9.760;2023-12-20T12:25:54;18.63;;;1.70;;
56427;SDS011;42331;53.578;9.760;2023-12-20T12:28:26;12.57;;;1.42;;
56427;SDS011;42331;53.578;9.760;2023-12-20T12:31:02;9.05;;;1.42;;
56427;SDS011;42331;53.578;9.760;2023-12-20T12:33:33;14.03;;;1.20;;
56427;SDS011;42331;53.578;9.760;2023-12-20T12:36:04;13.23;;;1.27;;
56427;SDS011;42331;53.578;9.760;2023-12-20T12:38:37;10.65;;;1.50;;
56427;SDS011;42331;53.578;9.760;2023-12-20T12:41:08;7.83;;;1.23;;
56427;SDS011;42331;53.578;9.760;2023-12-20T12:43:40;13.25;;;1.42;;
56427;SDS011;42331;53.578;9.760;2023-12-20T12:46:11;10.70;;;1.30;;
56427;SDS011;42331;53.578;9.760;2023-12-20T12:48:42;10.47;;;2.57;;
56427;SDS011;42331;53.578;9.760;2023-12-20T12:51:14;14.43;;;1.55;;
56427;SDS011;42331;53.578;9.760;2023-12-20T12:53:45;13.52;;;1.63;;
56427;SDS011;42331;53.578;9.760;2023-12-20T12:56:17;15.50;;;1.63;;
56427;SDS011;42331;53.578;9.760;2023-12-20T12:58:48;12.23;;;1.38;;
56427;SDS011;42331;53.578;9.760;2023-12-20T13:01:20;18.63;;;2.15;;
56427;SDS011;42331;53.578;9.760;2023-12-20T13:03:51;13.57;;;1.50;;
56427;SDS011;42331;53.578;9.760;2023-12-20T13:06:22;20.77;;;3.80;;
56427;SDS011;42331;53.578;9.760;2023-12-20T13:08:53;12.88;;;1.27;;
56427;SDS011;42331;53.578;9.760;2023-12-20T13:11:25;10.05;;;1.80;;
56427;SDS011;42331;53.578;9.760;2023-12-20T13:13:56;18.63;;;1.88;;
56427;SDS011;42331;53.578;9.760;2023-12-20T13:16:30;11.52;;;2.65;;
56427;SDS011;42331;53.578;9.760;2023-12-20T13:19:01;13.30;;;2.43;;
56427;SDS011;42331;53.578;9.760;2023-12-20T13:21:32;10.48;;;1.25;;
56427;SDS011;42331;53.578;9.760;2023-12-20T13:24:03;16.30;;;2.03;;
56427;SDS011;42331;53.578;9.760;2023-12-20T13:26:35;15.02;;;2.08;;
56427;SDS011;42331;53.578;9.760;2023-12-20T13:29:06;17.17;;;2.40;;
56427;SDS011;42331;53.578;9.760;2023-12-20T13:31:37;15.77;;;2.20;;
56427;SDS011;42331;53.578;9.760;2023-12-20T13:34:09;19.23;;;2.78;;
56427;SDS011;42331;53.578;9.760;2023-12-20T13:36:41;15.35;;;2.28;;
56427;SDS011;42331;53.578;9.760;2023-12-20T13:39:15;12.70;;;2.42;;
56427;SDS011;42331;53.578;9.760;2023-12-20T13:41:47;13.20;;;1.70;;
56427;SDS011;42331;53.578;9.760;2023-12-20T13:44:18;21.47;;;2.93;;
56427;SDS011;42331;53.578;9.760;2023-12-20T13:46:49;18.70;;;2.30;;
56427;SDS011;42331;53.578;9.760;2023-12-20T13:49:20;18.67;;;2.83;;
56427;SDS011;42331;53.578;9.760;2023-12-20T13:51:55;13.05;;;2.03;;
56427;SDS011;42331;53.578;9.760;2023-12-20T13:54:27;21.35;;;2.58;;
56427;SDS011;42331;53.578;9.760;2023-12-20T13:56:58;11.77;;;2.65;;
56427;SDS011;42331;53.578;9.760;2023-12-20T13:59:29;15.97;;;2.37;;
56427;SDS011;42331;53.578;9.760;2023-12-20T14:02:00;19.05;;;2.47;;
56427;SDS011;42331;53.578;9.760;2023-12-20T14:04:33;23.40;;;3.30;;
56427;SDS011;42331;53.578;9.760;2023-12-20T14:07:05;18.67;;;2.87;;
56427;SDS011;42331;53.578;9.760;2023-12-20T14:09:37;12.70;;;2.25;;
56427;SDS011;42331;53.578;9.760;2023-12-20T14:12:08;14.55;;;2.85;;
56427;SDS011;42331;53.578;9.760;2023-12-20T14:14:39;11.37;;;2.07;;
56427;SDS011;42331;53.578;9.760;2023-12-20T14:17:10;19.60;;;2.67;;
56427;SDS011;42331;53.578;9.760;2023-12-20T14:19:41;22.47;;;2.40;;
56427;SDS011;42331;53.578;9.760;2023-12-20T14:22:13;10.53;;;2.27;;
56427;SDS011;42331;53.578;9.760;2023-12-20T14:24:46;17.23;;;3.08;;
56427;SDS011;42331;53.578;9.760;2023-12-20T14:27:17;21.02;;;2.47;;
56427;SDS011;42331;53.578;9.760;2023-12-20T14:29:52;17.38;;;2.70;;
56427;SDS011;42331;53.578;9.760;2023-12-20T14:32:23;10.60;;;2.40;;
56427;SDS011;42331;53.578;9.760;2023-12-20T14:34:57;13.07;;;2.25;;
56427;SDS011;42331;53.578;9.760;2023-12-20T14:37:28;18.57;;;1.90;;
56427;SDS011;42331;53.578;9.760;2023-12-20T14:39:59;18.97;;;2.70;;
56427;SDS011;42331;53.578;9.760;2023-12-20T14:42:30;14.40;;;2.53;;
56427;SDS011;42331;53.578;9.760;2023-12-20T14:45:02;13.13;;;2.25;;
56427;SDS011;42331;53.578;9.760;2023-12-20T14:47:33;12.43;;;2.60;;
56427;SDS011;42331;53.578;9.760;2023-12-20T14:50:05;19.70;;;2.58;;
56427;SDS011;42331;53.578;9.760;2023-12-20T14:52:37;15.63;;;2.08;;
56427;SDS011;42331;53.578;9.760;2023-12-20T14:55:08;13.50;;;2.13;;
56427;SDS011;42331;53.578;9.760;2023-12-20T14:57:39;18.53;;;2.63;;
56427;SDS011;42331;53.578;9.760;2023-12-20T15:00:10;19.93;;;2.57;;
56427;SDS011;42331;53.578;9.760;2023-12-20T15:02:46;19.25;;;3.13;;
56427;SDS011;42331;53.578;9.760;2023-12-20T15:05:17;21.93;;;2.40;;
56427;SDS011;42331;53.578;9.760;2023-12-20T15:07:48;18.13;;;2.35;;
56427;SDS011;42331;53.578;9.760;2023-12-20T15:10:19;23.50;;;2.73;;
56427;SDS011;42331;53.578;9.760;2023-12-20T15:12:51;15.98;;;2.35;;
56427;SDS011;42331;53.578;9.760;2023-12-20T15:15:22;23.10;;;2.87;;
56427;SDS011;42331;53.578;9.760;2023-12-20T15:17:54;17.42;;;2.05;;
56427;SDS011;42331;53.578;9.760;2023-12-20T15:20:25;21.00;;;3.00;;
56427;SDS011;42331;53.578;9.760;2023-12-20T15:22:56;12.30;;;1.73;;